Time;durP1;ratioP1;P1;durP2;ratioP2;P2;SDS_P1;SDS_P2;PMS_P1;PMS_P2;Temp;Humidity;BMP_temperature;BMP_pressure;BME280_temperature;BME280_humidity;BME280_pressure;Samples;Min_cycle;Max_cycle;Signal;HPM_P1;HPM_P2
2023/03/02 00:01:43;;;;;;;9.18;5.15;;;;;;;2.22;64.42;102349.88;5130284;28;20403;-57
2023/03/02 00:04:20;;;;;;;9.05;5.60;;;;;;;2.24;64.30;102340.63;5114961;28;20050;-56
2023/03/02 00:06:49;;;;;;;9.10;5.65;;;;;;;2.20;63.90;102338.47;5113197;28;20056;-62
2023/03/02 00:09:17;;;;;;;10.50;6.07;;;;;;;2.17;64.57;102349.56;5087719;28;20131;-60
2023/03/02 00:11:45;;;;;;;9.45;5.40;;;;;;;2.17;64.51;102345.03;5107315;28;20051;-56
2023/03/02 00:14:12;;;;;;;9.57;5.70;;;;;;;2.17;64.59;102344.19;5114402;28;20043;-57
2023/03/02 00:16:40;;;;;;;8.15;4.95;;;;;;;2.17;64.48;102344.19;5111574;28;20079;-63
2023/03/02 00:19:08;;;;;;;10.90;5.68;;;;;;;2.03;65.25;102338.50;5108269;27;20062;-59
2023/03/02 00:21:36;;;;;;;12.13;5.53;;;;;;;1.96;65.84;102332.16;5119055;28;20058;-63
2023/03/02 00:24:04;;;;;;;8.68;5.35;;;;;;;1.99;65.96;102339.03;5122712;28;20069;-63
2023/03/02 00:26:35;;;;;;;9.23;5.85;;;;;;;1.98;65.81;102340.88;5121352;28;20071;-62
2023/03/02 00:29:03;;;;;;;13.93;6.20;;;;;;;2.00;66.22;102338.88;5121752;28;20063;-64
2023/03/02 00:31:31;;;;;;;10.68;6.20;;;;;;;1.97;66.20;102341.88;5117890;27;20070;-62
2023/03/02 00:33:59;;;;;;;10.40;5.38;;;;;;;1.91;66.70;102350.66;5118586;28;20074;-62
2023/03/02 00:36:26;;;;;;;9.80;6.03;;;;;;;1.88;66.94;102340.25;5116959;28;20055;-63
2023/03/02 00:38:56;;;;;;;9.27;5.82;;;;;;;1.88;67.21;102341.09;5115282;28;20411;-62
2023/03/02 00:41:24;;;;;;;10.50;6.03;;;;;;;1.82;67.36;102346.31;5068808;28;20132;-62
2023/03/02 00:43:51;;;;;;;10.68;6.22;;;;;;;1.82;67.92;102340.94;5116013;28;20044;-61
2023/03/02 00:46:21;;;;;;;10.55;6.03;;;;;;;1.82;67.68;102346.31;5114354;28;20066;-63
2023/03/02 00:48:49;;;;;;;10.43;6.18;;;;;;;1.82;67.96;102338.25;5115016;28;20499;-62
2023/03/02 00:51:17;;;;;;;9.95;5.35;;;;;;;1.78;68.19;102334.22;5078537;28;20496;-64
2023/03/02 00:53:45;;;;;;;10.07;5.70;;;;;;;1.77;68.55;102327.19;5060812;28;20044;-61
2023/03/02 00:56:13;;;;;;;14.25;6.30;;;;;;;1.66;68.79;102325.69;5076640;28;20046;-62
2023/03/02 00:58:46;;;;;;;12.07;6.18;;;;;;;1.64;68.98;102328.56;5093502;28;20051;-62
2023/03/02 01:01:15;;;;;;;12.15;6.35;;;;;;;1.63;69.40;102326.88;5074784;27;20044;-62
2023/03/02 01:03:48;;;;;;;11.60;6.13;;;;;;;1.68;69.40;102340.66;5081907;28;20055;-65
2023/03/02 01:06:18;;;;;;;10.32;6.13;;;;;;;1.66;69.49;102331.94;5097615;28;20511;-64
2023/03/02 01:08:46;;;;;;;12.23;5.93;;;;;;;1.58;69.63;102334.59;5097238;28;20047;-62
2023/03/02 01:11:19;;;;;;;10.80;6.15;;;;;;;1.52;70.22;102329.94;5108382;28;20109;-63
2023/03/02 01:13:48;;;;;;;10.60;6.32;;;;;;;1.45;70.60;102326.25;5094957;27;20135;-63
2023/03/02 01:16:16;;;;;;;11.55;6.55;;;;;;;1.43;70.47;102325.59;5076870;28;20048;-62
2023/03/02 01:18:43;;;;;;;13.23;6.63;;;;;;;1.38;71.22;102327.94;5094828;28;20051;-62
2023/03/02 01:21:13;;;;;;;10.07;5.97;;;;;;;1.40;71.95;102331.31;5095537;28;20047;-62
2023/03/02 01:23:41;;;;;;;10.68;6.60;;;;;;;1.39;72.12;102334.97;5106935;27;20511;-61
2023/03/02 01:26:09;;;;;;;10.60;6.68;;;;;;;1.42;72.11;102335.50;5097553;28;20048;-64
2023/03/02 01:28:37;;;;;;;10.23;6.05;;;;;;;1.40;72.80;102339.34;5113697;28;20043;-63
2023/03/02 01:31:04;;;;;;;10.95;5.88;;;;;;;1.32;73.53;102331.28;5114018;28;20057;-63
2023/03/02 01:33:33;;;;;;;11.85;6.75;;;;;;;1.31;73.83;102333.16;5079388;28;20106;-62
2023/03/02 01:36:01;;;;;;;10.43;6.70;;;;;;;1.25;74.58;102328.44;5116653;28;20059;-61
2023/03/02 01:38:29;;;;;;;10.60;6.68;;;;;;;1.20;75.26;102318.25;5081956;28;20553;-63
2023/03/02 01:40:57;;;;;;;11.65;7.32;;;;;;;1.16;76.18;102322.25;5082448;28;20108;-62
2023/03/02 01:43:28;;;;;;;12.73;7.70;;;;;;;1.12;77.67;102320.91;5110142;27;20581;-62
2023/03/02 01:46:01;;;;;;;14.43;8.48;;;;;;;1.26;77.48;102319.41;5105289;27;20150;-61
2023/03/02 01:48:42;;;;;;;12.55;7.78;;;;;;;1.25;78.62;102315.00;5095947;28;20078;-62
2023/03/02 01:51:14;;;;;;;12.88;8.18;;;;;;;1.21;79.74;102311.84;5107194;28;20488;-61
2023/03/02 01:53:45;;;;;;;14.23;9.35;;;;;;;1.19;80.47;102313.03;5092679;28;20113;-60
2023/03/02 01:56:16;;;;;;;14.55;9.88;;;;;;;1.18;81.64;102304.13;5076619;28;20048;-63
2023/03/02 01:58:46;;;;;;;16.73;10.93;;;;;;;1.22;82.68;102302.78;5093401;28;20072;-64
2023/03/02 02:01:14;;;;;;;18.58;11.73;;;;;;;1.20;84.11;102299.44;5083307;28;20040;-62
2023/03/02 02:03:49;;;;;;;16.27;11.63;;;;;;;1.15;85.66;102291.03;5112781;28;20043;-62
2023/03/02 02:06:36;;;;;;;16.63;12.40;;;;;;;1.20;86.27;102288.72;5095887;28;20050;-62
2023/03/02 02:09:07;;;;;;;19.17;13.60;;;;;;;1.16;88.01;102303.47;5080071;28;20057;-62
2023/03/02 02:11:35;;;;;;;18.92;14.90;;;;;;;1.12;89.08;102288.69;5087363;28;20557;-62
2023/03/02 02:14:03;;;;;;;19.52;14.70;;;;;;;1.09;90.80;102285.53;5092934;28;20063;-63
2023/03/02 02:16:33;;;;;;;23.63;15.75;;;;;;;1.07;92.56;102288.38;5090933;28;20039;-62
2023/03/02 02:19:03;;;;;;;25.85;19.30;;;;;;;0.98;94.67;102284.84;5096627;28;20400;-63
2023/03/02 02:21:32;;;;;;;24.33;18.00;;;;;;;0.93;96.03;102281.81;5092860;28;20060;-63
2023/03/02 02:24:32;;;;;;;22.88;17.73;;;;;;;1.03;97.33;102289.69;5112613;28;20031;-63
2023/03/02 02:27:00;;;;;;;23.20;16.05;;;;;;;1.01;97.98;102284.53;5091024;28;20062;-63
2023/03/02 02:29:36;;;;;;;27.80;20.13;;;;;;;1.01;99.00;102286.34;5075782;28;20052;-62
2023/03/02 02:32:16;;;;;;;25.88;19.75;;;;;;;0.95;99.67;102287.03;5106043;28;20075;-63
2023/03/02 02:34:48;;;;;;;24.35;18.58;;;;;;;0.90;100.00;102282.16;5098749;28;20086;-62
2023/03/02 02:37:28;;;;;;;27.67;21.75;;;;;;;0.90;100.00;102284.03;5078944;28;20058;-63
2023/03/02 02:39:56;;;;;;;31.15;22.38;;;;;;;0.96;100.00;102283.34;5111735;28;20495;-63
2023/03/02 02:42:27;;;;;;;26.13;19.98;;;;;;;1.01;100.00;102283.66;5093405;28;20407;-62
2023/03/02 02:44:58;;;;;;;27.52;21.63;;;;;;;0.96;100.00;102280.66;5095418;28;20050;-63
2023/03/02 02:47:26;;;;;;;28.15;21.98;;;;;;;0.94;100.00;102277.28;5093983;28;20394;-64
2023/03/02 02:49:54;;;;;;;25.02;21.30;;;;;;;0.92;100.00;102276.66;5075814;28;20484;-62
2023/03/02 02:52:24;;;;;;;25.90;20.60;;;;;;;0.93;100.00;102270.25;5095221;28;20054;-63
2023/03/02 02:54:55;;;;;;;30.13;23.88;;;;;;;1.04;100.00;102277.97;5112686;28;20130;-62
2023/03/02 02:57:25;;;;;;;28.35;22.58;;;;;;;1.04;100.00;102262.72;5062682;28;20067;-62
2023/03/02 03:00:00;;;;;;;30.27;22.90;;;;;;;0.98;100.00;102274.09;5111828;28;20048;-64
2023/03/02 03:02:33;;;;;;;33.22;25.45;;;;;;;0.90;100.00;102260.69;5070762;28;20054;-62
2023/03/02 03:05:01;;;;;;;30.25;23.40;;;;;;;0.88;100.00;102257.34;5091513;28;20040;-62
2023/03/02 03:07:32;;;;;;;30.65;23.85;;;;;;;0.80;100.00;102258.19;5074930;28;20500;-62
2023/03/02 03:10:21;;;;;;;34.95;26.23;;;;;;;0.77;100.00;102269.28;5095582;28;20130;-61
2023/03/02 03:12:50;;;;;;;28.80;22.45;;;;;;;0.73;100.00;102254.50;5113989;28;20052;-62
2023/03/02 03:15:20;;;;;;;31.83;24.15;;;;;;;0.73;100.00;102254.50;5082439;28;20044;-63
2023/03/02 03:17:54;;;;;;;30.00;23.42;;;;;;;0.76;100.00;102264.88;5115723;28;20106;-61
2023/03/02 03:20:25;;;;;;;31.98;24.73;;;;;;;0.78;100.00;102264.72;5113942;28;20050;-61
2023/03/02 03:22:58;;;;;;;29.08;23.33;;;;;;;0.88;100.00;102267.25;5116651;28;20093;-62
2023/03/02 03:25:28;;;;;;;30.02;22.90;;;;;;;0.84;100.00;102256.88;5099076;28;20044;-65
2023/03/02 03:27:56;;;;;;;30.10;24.63;;;;;;;0.87;100.00;102260.19;5116874;28;20119;-63
2023/03/02 03:30:25;;;;;;;30.92;23.85;;;;;;;0.84;100.00;102266.72;5114855;27;20097;-63
2023/03/02 03:32:53;;;;;;;33.50;25.75;;;;;;;0.83;100.00;102254.34;5114818;27;20054;-63
2023/03/02 03:35:21;;;;;;;30.42;24.02;;;;;;;0.84;100.00;102266.72;5098744;28;20081;-64
2023/03/02 03:37:50;;;;;;;32.83;25.27;;;;;;;0.80;100.00;102260.88;5100428;28;20131;-63
2023/03/02 03:40:19;;;;;;;32.97;24.95;;;;;;;0.82;100.00;102258.88;5112455;28;20115;-62
2023/03/02 03:42:50;;;;;;;35.58;26.33;;;;;;;0.85;100.00;102258.53;5098301;28;20044;-64
2023/03/02 03:45:18;;;;;;;31.15;24.63;;;;;;;0.85;100.00;102261.22;5098261;28;20075;-64
2023/03/02 03:47:45;;;;;;;34.10;25.05;;;;;;;0.83;100.00;102259.69;5064892;28;20036;-62
2023/03/02 03:50:13;;;;;;;30.25;22.50;;;;;;;0.83;100.00;102257.84;5106882;28;20044;-63
2023/03/02 03:52:42;;;;;;;30.50;23.83;;;;;;;0.92;100.00;102258.69;5099203;28;20054;-63
2023/03/02 03:55:16;;;;;;;30.80;23.70;;;;;;;0.90;100.00;102265.25;5084232;28;20151;-64
2023/03/02 03:57:48;;;;;;;32.65;24.05;;;;;;;0.85;100.00;102263.88;5101488;28;20141;-63
2023/03/02 04:00:17;;;;;;;30.10;22.67;;;;;;;0.84;100.00;102267.59;5121468;28;20121;-62
2023/03/02 04:02:56;;;;;;;33.15;24.05;;;;;;;0.79;100.00;102258.34;5127503;27;20044;-64
2023/03/02 04:05:26;;;;;;;29.73;22.55;;;;;;;0.80;100.00;102249.31;5125225;28;20135;-63
2023/03/02 04:07:58;;;;;;;30.98;23.75;;;;;;;0.75;100.00;102246.31;5118768;28;20039;-63
2023/03/02 04:10:25;;;;;;;31.10;24.17;;;;;;;0.75;100.00;102263.22;5099675;28;20098;-62
2023/03/02 04:12:53;;;;;;;30.13;23.65;;;;;;;0.75;100.00;102265.91;5132208;27;20051;-62
2023/03/02 04:15:24;;;;;;;29.25;23.23;;;;;;;0.70;100.00;102268.25;5103137;28;20181;-62
2023/03/02 04:17:53;;;;;;;30.15;22.48;;;;;;;0.74;100.00;102261.53;5084391;28;20050;-62
2023/03/02 04:20:23;;;;;;;32.03;22.60;;;;;;;0.64;100.00;102263.53;5085455;28;20119;-62
2023/03/02 04:22:54;;;;;;;32.83;23.20;;;;;;;0.67;100.00;102265.88;5104151;27;20495;-61
2023/03/02 04:25:24;;;;;;;32.00;23.25;;;;;;;0.62;100.00;102269.06;5099726;28;20479;-62
2023/03/02 04:27:56;;;;;;;30.52;22.73;;;;;;;0.59;100.00;102273.94;5098902;28;20471;-62
2023/03/02 04:30:27;;;;;;;30.25;22.95;;;;;;;0.60;100.00;102272.94;5042991;28;20040;-63
2023/03/02 04:32:56;;;;;;;29.17;22.80;;;;;;;0.47;100.00;102272.59;5093777;28;20450;-62
2023/03/02 04:35:26;;;;;;;31.77;23.85;;;;;;;0.41;100.00;102280.28;5086505;28;20426;-61
2023/03/02 04:37:57;;;;;;;30.95;23.48;;;;;;;0.41;100.00;102276.78;5094375;28;20043;-61
2023/03/02 04:40:25;;;;;;;33.40;24.00;;;;;;;0.39;100.00;102274.25;5106065;27;20090;-61
2023/03/02 04:42:53;;;;;;;30.52;24.27;;;;;;;0.35;100.00;102278.25;5098242;28;20067;-61
2023/03/02 04:45:21;;;;;;;30.95;23.45;;;;;;;0.39;100.00;102278.78;5116376;28;20040;-61
2023/03/02 04:47:48;;;;;;;33.88;26.02;;;;;;;0.46;100.00;102269.06;5112510;28;20048;-64
2023/03/02 04:50:16;;;;;;;35.53;26.23;;;;;;;0.41;100.00;102274.94;5102766;27;20051;-61
2023/03/02 04:52:44;;;;;;;34.10;25.67;;;;;;;0.39;100.00;102263.53;5115210;28;20411;-62
2023/03/02 04:55:18;;;;;;;31.60;23.65;;;;;;;0.33;100.00;102261.50;5097568;28;20040;-61
2023/03/02 04:57:46;;;;;;;35.25;27.30;;;;;;;0.37;100.00;102267.38;5115413;28;20059;-63
2023/03/02 05:00:16;;;;;;;36.20;27.67;;;;;;;0.28;100.00;102271.03;5071539;28;20050;-65
2023/03/02 05:02:44;;;;;;;38.92;28.20;;;;;;;0.20;100.00;102266.50;5092656;28;20126;-63
2023/03/02 05:05:18;;;;;;;35.05;26.25;;;;;;;0.17;100.00;102274.88;5093555;28;20040;-63
2023/03/02 05:07:46;;;;;;;37.33;27.17;;;;;;;0.06;100.00;102269.81;5093286;28;20036;-63
2023/03/02 05:10:14;;;;;;;35.67;27.33;;;;;;;0.07;100.00;102263.44;5110412;27;20043;-62
2023/03/02 05:13:04;;;;;;;37.00;28.40;;;;;;;0.17;100.00;102264.16;5096709;28;20048;-62
2023/03/02 05:15:38;;;;;;;39.08;30.73;;;;;;;0.22;100.00;102267.19;5113581;28;20488;-62
2023/03/02 05:18:08;;;;;;;42.13;30.77;;;;;;;0.18;100.00;102265.81;5107417;28;20407;-62
2023/03/02 05:20:36;;;;;;;41.17;31.33;;;;;;;0.10;100.00;102273.84;5111157;27;20289;-63
2023/03/02 05:23:06;;;;;;;43.03;31.52;;;;;;;0.08;100.00;102270.50;5093240;28;20056;-60
2023/03/02 05:25:36;;;;;;;42.38;32.03;;;;;;;-0.02;100.00;102268.78;5111319;27;20048;-64
2023/03/02 05:28:04;;;;;;;43.97;33.28;;;;;;;0.04;100.00;102269.13;5110271;27;20051;-63
2023/03/02 05:30:36;;;;;;;43.10;30.10;;;;;;;-0.03;100.00;102269.78;5104285;27;20051;-63
2023/03/02 05:33:11;;;;;;;39.20;28.40;;;;;;;-0.01;100.00;102267.78;5117251;27;20096;-63
2023/03/02 05:35:39;;;;;;;37.90;28.30;;;;;;;0.12;100.00;102261.09;5095687;27;20052;-62
2023/03/02 05:38:07;;;;;;;44.50;30.33;;;;;;;0.24;100.00;102267.00;5093960;28;20077;-63
2023/03/02 05:40:35;;;;;;;41.00;30.17;;;;;;;0.19;100.00;102267.50;5077745;28;20557;-64
2023/03/02 05:43:03;;;;;;;43.55;30.65;;;;;;;0.14;100.00;102259.09;5093848;28;20063;-61
2023/03/02 05:45:34;;;;;;;39.17;28.20;;;;;;;0.11;100.00;102264.81;5103596;27;20043;-63
2023/03/02 05:48:02;;;;;;;44.58;30.58;;;;;;;0.03;100.00;102265.63;5108292;28;20404;-62
2023/03/02 05:50:31;;;;;;;39.15;28.60;;;;;;;-0.01;100.00;102258.91;5093644;28;20072;-61
2023/03/02 05:53:01;;;;;;;41.85;29.48;;;;;;;0.02;100.00;102257.72;5100618;28;20237;-62
2023/03/02 05:55:29;;;;;;;42.83;30.15;;;;;;;0.03;100.00;102262.09;5091861;28;20506;-62
2023/03/02 05:57:57;;;;;;;42.35;29.73;;;;;;;0.09;100.00;102261.44;5093040;28;20143;-64
2023/03/02 06:00:24;;;;;;;40.33;28.73;;;;;;;0.12;100.00;102266.47;5095723;28;20047;-62
2023/03/02 06:02:52;;;;;;;41.50;28.35;;;;;;;0.12;100.00;102266.47;5113299;28;20127;-62
2023/03/02 06:05:21;;;;;;;41.85;29.77;;;;;;;0.07;100.00;102266.13;5095549;27;20048;-62
2023/03/02 06:07:49;;;;;;;41.72;29.30;;;;;;;0.06;100.00;102273.31;5110748;27;20059;-62
2023/03/02 06:10:17;;;;;;;39.67;28.45;;;;;;;-0.04;100.00;102257.38;5092731;28;20056;-60
2023/03/02 06:12:44;;;;;;;45.13;30.23;;;;;;;-0.13;100.00;102265.56;5075348;28;20479;-61
2023/03/02 06:15:12;;;;;;;44.10;30.30;;;;;;;-0.14;100.00;102263.91;5092256;28;20150;-62
2023/03/02 06:17:40;;;;;;;43.80;28.50;;;;;;;-0.15;100.00;102260.34;4738401;27;10000337;-61
2023/03/02 06:20:10;;;;;;;36.65;26.38;;;;;;;-0.16;100.00;102264.03;5088339;28;20047;-63
2023/03/02 06:22:44;;;;;;;42.17;29.30;;;;;;;-0.18;100.00;102265.22;5088795;28;20052;-64
2023/03/02 06:25:13;;;;;;;43.25;29.52;;;;;;;-0.04;100.00;102270.78;5089882;28;20056;-64
2023/03/02 06:27:42;;;;;;;43.85;28.98;;;;;;;0.11;100.00;102270.16;5097233;28;20051;-63
2023/03/02 06:30:13;;;;;;;39.67;27.67;;;;;;;0.20;100.00;102269.19;5108191;28;20490;-63
2023/03/02 06:32:42;;;;;;;39.75;27.50;;;;;;;0.18;100.00;102271.19;5109501;28;20134;-64
2023/03/02 06:35:10;;;;;;;41.45;28.92;;;;;;;0.11;100.00;102271.00;5107319;28;20048;-65
2023/03/02 06:37:38;;;;;;;38.95;27.95;;;;;;;0.02;100.00;102277.31;5072946;28;20075;-65
2023/03/02 06:40:10;;;;;;;42.38;29.50;;;;;;;-0.04;100.00;102275.31;5087937;28;20132;-64
2023/03/02 06:42:39;;;;;;;39.92;28.55;;;;;;;-0.12;100.00;102273.44;5089002;28;20044;-64
2023/03/02 06:45:08;;;;;;;42.90;28.35;;;;;;;-0.01;100.00;102278.50;5072031;28;20040;-64
2023/03/02 06:47:36;;;;;;;41.35;28.23;;;;;;;-0.01;100.00;102273.13;5075591;28;20082;-63
2023/03/02 06:50:04;;;;;;;43.05;28.75;;;;;;;-0.05;100.00;102279.84;5089493;28;20063;-63
2023/03/02 06:52:32;;;;;;;39.53;28.13;;;;;;;-0.09;100.00;102281.16;5088004;28;20402;-63
2023/03/02 06:55:00;;;;;;;43.92;29.75;;;;;;;-0.07;100.00;102283.69;5071500;28;20163;-65
2023/03/02 06:57:32;;;;;;;43.50;30.05;;;;;;;-0.12;100.00;102286.84;5103828;28;20140;-65
2023/03/02 07:00:08;;;;;;;39.03;27.70;;;;;;;-0.23;100.00;102284.44;5108772;28;20406;-64
2023/03/02 07:02:37;;;;;;;40.97;28.80;;;;;;;-0.23;100.00;102292.47;5108070;28;20047;-62
2023/03/02 07:05:06;;;;;;;44.20;29.98;;;;;;;-0.28;100.00;102294.78;5108179;28;20040;-64
2023/03/02 07:07:33;;;;;;;44.88;30.67;;;;;;;-0.23;100.00;102300.50;5087182;28;20518;-63
2023/03/02 07:10:01;;;;;;;42.25;28.58;;;;;;;-0.28;100.00;102300.16;5088846;28;20463;-63
2023/03/02 07:12:29;;;;;;;41.20;27.23;;;;;;;-0.27;100.00;102291.94;5089124;28;20048;-63
2023/03/02 07:14:57;;;;;;;43.05;29.75;;;;;;;-0.20;100.00;102294.81;5087983;28;20139;-63
2023/03/02 07:17:24;;;;;;;40.60;28.85;;;;;;;-0.19;100.00;102299.19;5098489;28;20419;-63
2023/03/02 07:19:52;;;;;;;39.75;27.52;;;;;;;-0.13;100.00;102295.84;5109583;28;20127;-64
2023/03/02 07:22:20;;;;;;;40.97;27.92;;;;;;;-0.14;100.00;102294.19;5112063;28;20055;-64
2023/03/02 07:24:48;;;;;;;40.45;27.50;;;;;;;-0.13;100.00;102289.66;5111946;28;20493;-63
2023/03/02 07:27:15;;;;;;;41.42;27.27;;;;;;;-0.07;100.00;102295.22;5104608;28;20040;-63
2023/03/02 07:29:43;;;;;;;37.80;24.70;;;;;;;-0.04;100.00;102300.25;5058901;28;20044;-62
2023/03/02 07:32:11;;;;;;;40.78;27.13;;;;;;;0.03;100.00;102296.94;5091010;28;20044;-62
2023/03/02 07:34:39;;;;;;;40.42;26.27;;;;;;;0.19;100.00;102297.84;5092414;28;20048;-62
2023/03/02 07:37:07;;;;;;;39.42;26.02;;;;;;;0.26;100.00;102295.31;5095212;28;20056;-64
2023/03/02 07:39:34;;;;;;;39.22;26.83;;;;;;;0.31;100.00;102292.97;5092371;28;20079;-64
2023/03/02 07:42:03;;;;;;;41.88;27.75;;;;;;;0.22;100.00;102288.63;5089827;28;20511;-63
2023/03/02 07:44:31;;;;;;;38.40;27.17;;;;;;;0.23;100.00;102298.34;5093220;28;20048;-63
2023/03/02 07:46:58;;;;;;;38.90;27.38;;;;;;;0.26;100.00;102294.47;5098120;28;20051;-64
2023/03/02 07:49:26;;;;;;;40.17;26.52;;;;;;;0.28;100.00;102298.69;5096679;28;20046;-63
2023/03/02 07:51:54;;;;;;;38.08;25.88;;;;;;;0.33;100.00;102299.03;5093181;28;20044;-64
2023/03/02 07:54:25;;;;;;;37.65;23.90;;;;;;;0.41;100.00;102299.06;5092683;28;20430;-62
2023/03/02 07:56:52;;;;;;;37.58;25.05;;;;;;;0.56;100.00;102298.41;5080249;28;20044;-62
2023/03/02 07:59:20;;;;;;;39.25;24.70;;;;;;;0.59;100.00;102300.75;5096675;28;20135;-63
2023/03/02 08:01:48;;;;;;;34.70;24.83;;;;;;;0.71;100.00;102304.78;5096480;28;20044;-62
2023/03/02 08:04:16;;;;;;;39.10;25.27;;;;;;;0.72;100.00;102303.81;5103876;28;20052;-64
2023/03/02 08:06:43;;;;;;;35.20;23.73;;;;;;;0.68;100.00;102304.31;5105594;28;20044;-62
2023/03/02 08:09:12;;;;;;;36.60;24.45;;;;;;;0.63;100.00;102304.78;5100359;28;20059;-64
2023/03/02 08:11:43;;;;;;;35.30;24.58;;;;;;;0.70;100.00;102307.63;5104654;28;20064;-62
2023/03/02 08:14:11;;;;;;;42.22;25.30;;;;;;;0.72;100.00;102298.44;5089620;28;20071;-63
2023/03/02 08:16:39;;;;;;;38.78;22.88;;;;;;;0.69;99.94;102296.06;5102226;28;20101;-63
2023/03/02 08:19:07;;;;;;;39.92;24.45;;;;;;;0.72;99.79;102290.41;5103435;27;20044;-65
2023/03/02 08:21:35;;;;;;;37.78;24.13;;;;;;;0.80;98.49;102298.44;5091019;27;20077;-61
2023/03/02 08:24:03;;;;;;;40.08;24.90;;;;;;;0.79;99.00;102291.38;5082417;28;20063;-61
2023/03/02 08:26:31;;;;;;;36.08;23.48;;;;;;;0.89;98.39;102296.59;5102434;27;20126;-62
2023/03/02 08:28:59;;;;;;;37.20;24.73;;;;;;;0.95;97.81;102295.09;5114890;28;20085;-61
2023/03/02 08:31:27;;;;;;;36.90;22.90;;;;;;;1.00;97.13;102292.72;5115950;28;20335;-63
2023/03/02 08:33:54;;;;;;;35.90;24.30;;;;;;;1.04;96.10;102296.75;5097692;28;20116;-62
2023/03/02 08:36:22;;;;;;;36.33;24.58;;;;;;;1.12;96.76;102291.38;5050405;28;20442;-63
2023/03/02 08:38:50;;;;;;;36.95;25.52;;;;;;;1.18;95.56;102282.66;5095739;28;20075;-63
2023/03/02 08:41:20;;;;;;;34.92;23.33;;;;;;;1.27;96.51;102295.06;5095651;28;20082;-62
2023/03/02 08:43:48;;;;;;;38.00;24.25;;;;;;;1.41;94.44;102287.31;5100041;28;20083;-62
2023/03/02 08:46:17;;;;;;;33.65;22.80;;;;;;;1.37;93.93;102292.19;5084041;28;20039;-62
2023/03/02 08:48:46;;;;;;;36.83;23.48;;;;;;;1.38;93.70;102290.34;5094338;28;20067;-62
2023/03/02 08:51:20;;;;;;;38.30;23.17;;;;;;;1.34;92.60;102281.78;5086366;28;20077;-62
2023/03/02 08:53:49;;;;;;;32.72;22.95;;;;;;;1.38;92.33;102284.97;5097449;28;20043;-63
2023/03/02 08:56:29;;;;;;;32.50;22.25;;;;;;;1.37;92.48;102283.28;5110070;27;20075;-63
2023/03/02 08:59:03;;;;;;;34.42;22.08;;;;;;;1.45;91.88;102276.06;5094859;28;20047;-61
2023/03/02 09:01:33;;;;;;;36.15;23.67;;;;;;;1.50;92.00;102278.22;5095451;27;20055;-61
2023/03/02 09:04:03;;;;;;;33.38;22.23;;;;;;;1.61;91.04;102279.69;5116051;27;20055;-61
2023/03/02 09:06:34;;;;;;;33.53;22.38;;;;;;;1.58;89.07;102275.50;5091712;28;20127;-62
2023/03/02 09:09:03;;;;;;;34.55;21.63;;;;;;;1.61;89.55;102282.38;5077819;27;20387;-63
2023/03/02 09:11:31;;;;;;;32.28;19.52;;;;;;;1.67;88.59;102285.22;5097500;28;20395;-60
2023/03/02 09:13:59;;;;;;;31.02;18.88;;;;;;;1.78;87.89;102280.47;5115814;28;20047;-62
2023/03/02 09:16:27;;;;;;;29.77;18.60;;;;;;;1.85;86.60;102276.09;5107245;28;20090;-63
2023/03/02 09:18:55;;;;;;;29.88;18.77;;;;;;;1.92;86.30;102274.38;5094515;28;20492;-62
2023/03/02 09:21:23;;;;;;;30.40;18.85;;;;;;;1.97;85.69;102277.38;5093588;28;20063;-63
2023/03/02 09:23:54;;;;;;;31.35;19.30;;;;;;;1.99;86.29;102278.03;5094713;28;20372;-62
2023/03/02 09:26:23;;;;;;;28.45;18.10;;;;;;;2.05;85.08;102281.91;5105822;28;20043;-63
2023/03/02 09:28:51;;;;;;;25.88;17.88;;;;;;;2.10;84.77;102280.34;5114179;28;20047;-62
2023/03/02 09:31:19;;;;;;;25.73;17.20;;;;;;;2.14;84.84;102278.13;5114821;28;20073;-65
2023/03/02 09:33:47;;;;;;;29.00;18.42;;;;;;;2.18;84.58;102278.63;5113738;28;20048;-63
2023/03/02 09:36:20;;;;;;;25.73;15.85;;;;;;;2.23;83.87;102281.63;5111670;28;20474;-61
2023/03/02 09:38:48;;;;;;;26.00;15.45;;;;;;;2.31;82.23;102274.34;5113432;28;20051;-61
2023/03/02 09:41:19;;;;;;;29.45;18.17;;;;;;;2.32;82.01;102275.19;5113594;28;20056;-61
2023/03/02 09:43:56;;;;;;;25.67;16.15;;;;;;;2.36;82.81;102279.22;5114735;28;20467;-62
2023/03/02 09:46:33;;;;;;;25.33;15.93;;;;;;;2.42;81.28;102272.28;5097658;28;20438;-61
2023/03/02 09:49:13;;;;;;;23.95;15.68;;;;;;;2.44;81.88;102284.53;5059496;28;20565;-62
2023/03/02 09:51:57;;;;;;;22.63;15.00;;;;;;;2.45;79.87;102278.13;5093601;28;20056;-62
2023/03/02 09:54:25;;;;;;;23.30;15.07;;;;;;;2.50;80.01;102280.28;5076176;28;20048;-62
2023/03/02 09:56:56;;;;;;;23.05;14.48;;;;;;;2.60;78.02;102274.66;5095345;28;20106;-62
2023/03/02 09:59:37;;;;;;;26.25;15.65;;;;;;;2.62;78.04;102278.00;5076143;28;20048;-63
2023/03/02 10:02:19;;;;;;;22.52;14.02;;;;;;;2.69;77.71;102273.59;5093434;28;20105;-61
2023/03/02 10:04:51;;;;;;;26.17;14.75;;;;;;;2.78;76.86;102267.13;5096227;28;20552;-63
2023/03/02 10:07:26;;;;;;;22.60;14.35;;;;;;;2.81;77.79;102282.91;5112907;28;20036;-62
2023/03/02 10:09:57;;;;;;;23.42;15.52;;;;;;;2.92;77.38;102276.28;5096359;28;20039;-64
2023/03/02 10:12:34;;;;;;;28.10;14.82;;;;;;;2.97;77.00;102277.38;5113057;28;20139;-63
2023/03/02 10:15:15;;;;;;;20.10;13.82;;;;;;;3.02;76.24;102278.72;5112407;28;20056;-62
2023/03/02 10:18:08;;;;;;;20.02;14.10;;;;;;;3.11;74.15;102278.47;5112156;28;20040;-62
2023/03/02 10:21:20;;;;;;;22.33;13.32;;;;;;;3.21;71.39;102286.28;5114361;28;20047;-62
2023/03/02 10:24:12;;;;;;;19.48;13.73;;;;;;;3.26;70.08;102285.72;5113800;28;20421;-62
2023/03/02 10:26:43;;;;;;;22.20;14.18;;;;;;;3.31;70.66;102276.06;5091923;28;20484;-62
2023/03/02 10:29:31;;;;;;;23.73;14.48;;;;;;;3.38;71.54;102263.53;5076122;28;20089;-62
2023/03/02 10:32:42;;;;;;;24.60;15.73;;;;;;;3.40;72.99;102272.28;5094031;28;20447;-62
2023/03/02 10:35:18;;;;;;;22.98;15.13;;;;;;;3.56;69.80;102259.63;4996487;28;20056;-63
2023/03/02 10:37:47;;;;;;;;;;;;;;;3.60;69.90;102271.72;5012123;28;20080;-62
2023/03/02 10:40:33;;;;;;;26.90;15.15;;;;;;;3.63;68.37;102265.94;5032230;28;20019;-61
2023/03/02 10:43:02;;;;;;;21.48;14.52;;;;;;;3.62;66.81;102267.81;5093977;28;20075;-62
2023/03/02 10:45:31;;;;;;;21.73;13.57;;;;;;;3.68;66.19;102258.16;5102109;28;20048;-63
2023/03/02 10:48:00;;;;;;;21.45;14.55;;;;;;;3.69;65.68;102254.44;5093047;28;20567;-63
2023/03/02 10:50:29;;;;;;;22.85;13.90;;;;;;;3.74;65.08;102256.56;5094165;28;20051;-62
2023/03/02 10:52:57;;;;;;;21.65;13.50;;;;;;;3.75;65.27;102248.31;5093567;28;20055;-61
2023/03/02 10:55:28;;;;;;;19.65;12.48;;;;;;;3.75;66.21;102255.53;5095906;28;20066;-62
2023/03/02 10:58:00;;;;;;;17.65;9.98;;;;;;;3.80;64.42;102251.28;5113251;28;20047;-61
2023/03/02 11:00:30;;;;;;;19.33;13.23;;;;;;;3.79;63.86;102262.22;5111921;28;20054;-62
2023/03/02 11:02:59;;;;;;;19.33;13.07;;;;;;;3.79;65.33;102252.28;5112930;28;20497;-62
2023/03/02 11:05:36;;;;;;;19.20;13.35;;;;;;;3.82;66.86;102248.38;5094945;28;20048;-62
2023/03/02 11:08:31;;;;;;;22.90;13.20;;;;;;;3.96;67.40;102249.38;5112168;28;20048;-62
2023/03/02 11:11:02;;;;;;;22.42;13.90;;;;;;;4.04;67.00;102254.66;5110696;28;20063;-63
2023/03/02 11:13:35;;;;;;;17.83;11.23;;;;;;;4.07;67.31;102254.28;5095578;28;20044;-62
2023/03/02 11:16:16;;;;;;;20.63;12.50;;;;;;;4.08;66.85;102250.56;5111323;28;20042;-62
2023/03/02 11:18:51;;;;;;;20.50;12.68;;;;;;;4.07;66.24;102246.19;5112061;28;20043;-62
2023/03/02 11:21:34;;;;;;;21.73;13.70;;;;;;;4.04;67.05;102241.16;5112937;28;20050;-63
2023/03/02 11:24:12;;;;;;;18.92;13.10;;;;;;;4.11;67.28;102241.25;5113208;28;20048;-63
2023/03/02 11:26:49;;;;;;;20.55;12.32;;;;;;;4.17;66.62;102243.19;5094483;28;20040;-62
2023/03/02 11:29:35;;;;;;;19.13;12.80;;;;;;;4.25;67.20;102240.38;5076090;28;20052;-65
2023/03/02 11:32:05;;;;;;;;;;;;;;;4.27;67.58;102236.47;5108059;27;20044;-65